sensor_id;sensor_type;location;lat;lon;timestamp;pressure;altitude;pressure_sealevel;temperature;humidity
59789;BME280;47353;51.614;5.530;2023-07-02T00:00:50;100612.53;;;16.66;92.50
59789;BME280;47353;51.614;5.530;2023-07-02T00:03:17;100618.91;;;16.66;92.16
59789;BME280;47353;51.614;5.530;2023-07-02T00:05:47;100618.44;;;16.64;91.83
59789;BME280;47353;51.614;5.530;2023-07-02T00:08:15;100620.41;;;16.63;91.86
59789;BME280;47353;51.614;5.530;2023-07-02T00:10:40;100613.31;;;16.57;92.31
59789;BME280;47353;51.614;5.530;2023-07-02T00:13:06;100612.47;;;16.57;92.73
59789;BME280;47353;51.614;5.530;2023-07-02T00:15:31;100606.88;;;16.57;92.65
59789;BME280;47353;51.614;5.530;2023-07-02T00:17:57;100610.00;;;16.55;92.47
59789;BME280;47353;51.614;5.530;2023-07-02T00:20:22;100601.63;;;16.55;92.31
59789;BME280;47353;51.614;5.530;2023-07-02T00:22:48;100595.19;;;16.55;92.82
59789;BME280;47353;51.614;5.530;2023-07-02T00:25:14;100580.91;;;16.56;93.05
59789;BME280;47353;51.614;5.530;2023-07-02T00:27:40;100544.91;;;16.55;92.29
59789;BME280;47353;51.614;5.530;2023-07-02T00:30:06;100567.56;;;16.53;92.56
59789;BME280;47353;51.614;5.530;2023-07-02T00:32:32;100590.09;;;16.48;92.55
59789;BME280;47353;51.614;5.530;2023-07-02T00:34:57;100611.53;;;16.39;92.97
59789;BME280;47353;51.614;5.530;2023-07-02T00:37:23;100609.22;;;16.33;93.28
59789;BME280;47353;51.614;5.530;2023-07-02T00:39:49;100611.81;;;16.29;93.25
59789;BME280;47353;51.614;5.530;2023-07-02T00:42:14;100613.59;;;16.25;93.11
59789;BME280;47353;51.614;5.530;2023-07-02T00:44:41;100621.78;;;16.22;93.72
59789;BME280;47353;51.614;5.530;2023-07-02T00:47:11;100619.63;;;16.19;93.36
59789;BME280;47353;51.614;5.530;2023-07-02T00:49:39;100624.84;;;16.12;93.76
59789;BME280;47353;51.614;5.530;2023-07-02T00:52:05;100621.69;;;16.05;94.33
59789;BME280;47353;51.614;5.530;2023-07-02T00:54:31;100620.84;;;16.04;94.82
59789;BME280;47353;51.614;5.530;2023-07-02T00:56:57;100638.44;;;16.05;94.89
59789;BME280;47353;51.614;5.530;2023-07-02T00:59:28;100634.38;;;16.11;94.06
59789;BME280;47353;51.614;5.530;2023-07-02T01:01:55;100635.38;;;16.15;94.14
59789;BME280;47353;51.614;5.530;2023-07-02T01:04:22;100635.69;;;16.13;94.49
59789;BME280;47353;51.614;5.530;2023-07-02T01:06:53;100633.72;;;16.14;93.97
59789;BME280;47353;51.614;5.530;2023-07-02T01:09:23;100634.03;;;16.12;94.28
59789;BME280;47353;51.614;5.530;2023-07-02T01:11:54;100630.63;;;16.15;94.32
59789;BME280;47353;51.614;5.530;2023-07-02T01:16:55;100635.88;;;16.17;94.07
59789;BME280;47353;51.614;5.530;2023-07-02T01:19:46;100637.84;;;16.16;93.93
59789;BME280;47353;51.614;5.530;2023-07-02T01:22:17;100642.09;;;16.14;93.95
59789;BME280;47353;51.614;5.530;2023-07-02T01:24:43;100628.59;;;16.07;94.18
59789;BME280;47353;51.614;5.530;2023-07-02T01:27:09;100638.13;;;16.06;94.58
59789;BME280;47353;51.614;5.530;2023-07-02T01:29:35;100640.72;;;16.03;94.87
59789;BME280;47353;51.614;5.530;2023-07-02T01:32:05;100643.94;;;15.96;95.11
59789;BME280;47353;51.614;5.530;2023-07-02T01:34:30;100650.78;;;15.90;95.58
59789;BME280;47353;51.614;5.530;2023-07-02T01:36:56;100641.41;;;15.86;95.77
59789;BME280;47353;51.614;5.530;2023-07-02T01:39:21;100640.53;;;15.77;96.43
59789;BME280;47353;51.614;5.530;2023-07-02T01:41:55;100651.69;;;15.77;96.76
59789;BME280;47353;51.614;5.530;2023-07-02T01:44:22;100660.06;;;15.77;97.11
59789;BME280;47353;51.614;5.530;2023-07-02T01:46:48;100668.13;;;15.79;96.76
59789;BME280;47353;51.614;5.530;2023-07-02T01:49:18;100658.72;;;15.75;97.33
59789;BME280;47353;51.614;5.530;2023-07-02T01:51:55;100660.38;;;15.76;97.80
59789;BME280;47353;51.614;5.530;2023-07-02T01:54:23;100659.53;;;15.75;97.61
59789;BME280;47353;51.614;5.530;2023-07-02T01:56:48;100662.66;;;15.74;97.85
59789;BME280;47353;51.614;5.530;2023-07-02T01:59:15;100653.59;;;15.68;98.28
59789;BME280;47353;51.614;5.530;2023-07-02T02:01:42;100658.97;;;15.65;97.95
59789;BME280;47353;51.614;5.530;2023-07-02T02:04:11;100653.50;;;15.60;98.41
59789;BME280;47353;51.614;5.530;2023-07-02T02:06:38;100654.44;;;15.55;98.80
59789;BME280;47353;51.614;5.530;2023-07-02T02:09:04;100652.81;;;15.54;99.36
59789;BME280;47353;51.614;5.530;2023-07-02T02:11:30;100660.84;;;15.56;99.07
59789;BME280;47353;51.614;5.530;2023-07-02T02:13:57;100647.53;;;15.53;99.29
59789;BME280;47353;51.614;5.530;2023-07-02T02:16:22;100657.53;;;15.54;99.36
59789;BME280;47353;51.614;5.530;2023-07-02T02:18:48;100655.69;;;15.49;99.09
59789;BME280;47353;51.614;5.530;2023-07-02T02:21:20;100655.81;;;15.44;99.48
59789;BME280;47353;51.614;5.530;2023-07-02T02:23:46;100650.94;;;15.36;99.70
59789;BME280;47353;51.614;5.530;2023-07-02T02:26:11;100648.28;;;15.31;99.74
59789;BME280;47353;51.614;5.530;2023-07-02T02:28:37;100654.81;;;15.27;99.86
59789;BME280;47353;51.614;5.530;2023-07-02T02:31:02;100667.69;;;15.23;100.00
59789;BME280;47353;51.614;5.530;2023-07-02T02:33:29;100669.25;;;15.15;100.00
59789;BME280;47353;51.614;5.530;2023-07-02T02:35:54;100666.56;;;15.10;100.00
59789;BME280;47353;51.614;5.530;2023-07-02T02:38:20;100665.75;;;15.10;100.00
59789;BME280;47353;51.614;5.530;2023-07-02T02:40:45;100667.81;;;15.04;100.00
59789;BME280;47353;51.614;5.530;2023-07-02T02:43:11;100667.91;;;14.99;100.00
59789;BME280;47353;51.614;5.530;2023-07-02T02:45:36;100669.91;;;14.98;100.00
59789;BME280;47353;51.614;5.530;2023-07-02T02:48:01;100679.69;;;14.96;100.00
59789;BME280;47353;51.614;5.530;2023-07-02T02:50:27;100682.78;;;14.94;100.00
59789;BME280;47353;51.614;5.530;2023-07-02T02:52:52;100682.59;;;14.91;100.00
59789;BME280;47353;51.614;5.530;2023-07-02T02:55:18;100678.25;;;14.85;100.00
59789;BME280;47353;51.614;5.530;2023-07-02T02:57:43;100682.16;;;14.84;100.00
59789;BME280;47353;51.614;5.530;2023-07-02T03:00:09;100686.72;;;14.80;100.00
59789;BME280;47353;51.614;5.530;2023-07-02T03:02:35;100684.25;;;14.78;100.00
59789;BME280;47353;51.614;5.530;2023-07-02T03:05:01;100691.75;;;14.78;100.00
59789;BME280;47353;51.614;5.530;2023-07-02T03:07:30;100690.44;;;14.75;100.00
59789;BME280;47353;51.614;5.530;2023-07-02T03:09:56;100703.00;;;14.73;100.00
59789;BME280;47353;51.614;5.530;2023-07-02T03:12:22;100700.03;;;14.69;100.00
59789;BME280;47353;51.614;5.530;2023-07-02T03:14:47;100705.59;;;14.69;100.00
59789;BME280;47353;51.614;5.530;2023-07-02T03:17:17;100706.72;;;14.68;100.00
59789;BME280;47353;51.614;5.530;2023-07-02T03:19:42;100707.25;;;14.70;100.00
59789;BME280;47353;51.614;5.530;2023-07-02T03:22:07;100710.56;;;14.72;100.00
59789;BME280;47353;51.614;5.530;2023-07-02T03:24:33;100711.34;;;14.73;100.00
59789;BME280;47353;51.614;5.530;2023-07-02T03:26:58;100711.66;;;14.71;100.00
59789;BME280;47353;51.614;5.530;2023-07-02T03:29:23;100718.69;;;14.69;99.91
59789;BME280;47353;51.614;5.530;2023-07-02T03:31:49;100712.59;;;14.67;100.00
59789;BME280;47353;51.614;5.530;2023-07-02T03:34:14;100722.41;;;14.64;99.08
59789;BME280;47353;51.614;5.530;2023-07-02T03:36:40;100720.84;;;14.58;98.64
59789;BME280;47353;51.614;5.530;2023-07-02T03:39:05;100724.53;;;14.54;98.25
59789;BME280;47353;51.614;5.530;2023-07-02T03:41:31;100724.41;;;14.45;98.20
59789;BME280;47353;51.614;5.530;2023-07-02T03:43:56;100730.19;;;14.49;97.50
59789;BME280;47353;51.614;5.530;2023-07-02T03:46:22;100734.13;;;14.48;97.67
59789;BME280;47353;51.614;5.530;2023-07-02T03:48:47;100724.72;;;14.44;97.41
59789;BME280;47353;51.614;5.530;2023-07-02T03:51:13;100735.25;;;14.47;97.39
59789;BME280;47353;51.614;5.530;2023-07-02T03:53:42;100739.47;;;14.44;97.77
59789;BME280;47353;51.614;5.530;2023-07-02T03:56:07;100740.09;;;14.41;97.79
59789;BME280;47353;51.614;5.530;2023-07-02T03:58:33;100744.59;;;14.37;97.56
59789;BME280;47353;51.614;5.530;2023-07-02T04:00:59;100741.31;;;14.35;97.48
59789;BME280;47353;51.614;5.530;2023-07-02T04:03:24;100742.09;;;14.36;97.57
59789;BME280;47353;51.614;5.530;2023-07-02T04:05:50;100740.78;;;14.33;97.85
59789;BME280;47353;51.614;5.530;2023-07-02T04:08:15;100747.69;;;14.36;97.97
59789;BME280;47353;51.614;5.530;2023-07-02T04:10:41;100745.44;;;14.38;98.97
59789;BME280;47353;51.614;5.530;2023-07-02T04:13:06;100751.00;;;14.38;99.36
59789;BME280;47353;51.614;5.530;2023-07-02T04:15:32;100748.22;;;14.38;100.00
59789;BME280;47353;51.614;5.530;2023-07-02T04:17:58;100750.75;;;14.34;99.71
59789;BME280;47353;51.614;5.530;2023-07-02T04:20:23;100755.31;;;14.30;99.35
59789;BME280;47353;51.614;5.530;2023-07-02T04:22:48;100749.19;;;14.28;99.11
59789;BME280;47353;51.614;5.530;2023-07-02T04:25:14;100755.31;;;14.30;99.20
59789;BME280;47353;51.614;5.530;2023-07-02T04:27:43;100757.56;;;14.28;98.86
59789;BME280;47353;51.614;5.530;2023-07-02T04:30:10;100761.72;;;14.31;98.81
59789;BME280;47353;51.614;5.530;2023-07-02T04:32:38;100763.03;;;14.33;98.64
59789;BME280;47353;51.614;5.530;2023-07-02T04:35:05;100761.91;;;14.34;97.88
59789;BME280;47353;51.614;5.530;2023-07-02T04:37:31;100763.81;;;14.39;97.14
59789;BME280;47353;51.614;5.530;2023-07-02T04:39:56;100764.00;;;14.42;96.49
59789;BME280;47353;51.614;5.530;2023-07-02T04:42:22;100770.94;;;14.45;95.56
59789;BME280;47353;51.614;5.530;2023-07-02T04:44:53;100771.13;;;14.48;93.65
59789;BME280;47353;51.614;5.530;2023-07-02T04:47:19;100767.25;;;14.49;92.93
59789;BME280;47353;51.614;5.530;2023-07-02T04:49:45;100769.41;;;14.52;91.73
59789;BME280;47353;51.614;5.530;2023-07-02T04:52:10;100777.47;;;14.54;91.83
59789;BME280;47353;51.614;5.530;2023-07-02T04:54:35;100774.38;;;14.55;91.27
59789;BME280;47353;51.614;5.530;2023-07-02T04:57:01;100780.97;;;14.59;89.19
59789;BME280;47353;51.614;5.530;2023-07-02T04:59:26;100786.38;;;14.69;88.21
59789;BME280;47353;51.614;5.530;2023-07-02T05:01:52;100790.13;;;14.78;87.06
59789;BME280;47353;51.614;5.530;2023-07-02T05:04:17;100795.81;;;14.87;85.79
59789;BME280;47353;51.614;5.530;2023-07-02T05:06:42;100795.63;;;14.97;84.50
59789;BME280;47353;51.614;5.530;2023-07-02T05:09:08;100791.41;;;14.99;83.60
59789;BME280;47353;51.614;5.530;2023-07-02T05:11:33;100792.94;;;15.05;83.10
59789;BME280;47353;51.614;5.530;2023-07-02T05:13:59;100799.91;;;15.08;81.64
59789;BME280;47353;51.614;5.530;2023-07-02T05:16:24;100805.25;;;15.18;80.88
59789;BME280;47353;51.614;5.530;2023-07-02T05:18:49;100804.56;;;15.26;80.74
59789;BME280;47353;51.614;5.530;2023-07-02T05:21:17;100803.31;;;15.32;79.08
59789;BME280;47353;51.614;5.530;2023-07-02T05:23:43;100802.38;;;15.37;78.49
59789;BME280;47353;51.614;5.530;2023-07-02T05:26:08;100815.53;;;15.50;78.35
59789;BME280;47353;51.614;5.530;2023-07-02T05:28:33;100804.25;;;15.55;77.40
59789;BME280;47353;51.614;5.530;2023-07-02T05:30:59;100811.09;;;15.62;76.72
59789;BME280;47353;51.614;5.530;2023-07-02T05:33:24;100817.38;;;15.68;77.43
59789;BME280;47353;51.614;5.530;2023-07-02T05:35:49;100818.72;;;15.70;77.02
59789;BME280;47353;51.614;5.530;2023-07-02T05:38:16;100814.50;;;15.73;76.09
59789;BME280;47353;51.614;5.530;2023-07-02T05:40:41;100816.16;;;15.74;76.14
59789;BME280;47353;51.614;5.530;2023-07-02T05:43:06;100821.19;;;15.72;76.13
59789;BME280;47353;51.614;5.530;2023-07-02T05:45:32;100835.16;;;15.72;76.02
59789;BME280;47353;51.614;5.530;2023-07-02T05:47:57;100829.56;;;15.72;76.53
59789;BME280;47353;51.614;5.530;2023-07-02T05:50:23;100835.06;;;15.77;75.65
59789;BME280;47353;51.614;5.530;2023-07-02T05:52:48;100837.13;;;15.85;76.06
59789;BME280;47353;51.614;5.530;2023-07-02T05:55:14;100837.13;;;15.85;75.03
59789;BME280;47353;51.614;5.530;2023-07-02T05:57:39;100846.19;;;15.90;75.61
59789;BME280;47353;51.614;5.530;2023-07-02T06:00:05;100841.97;;;15.93;75.37
59789;BME280;47353;51.614;5.530;2023-07-02T06:02:31;100851.25;;;16.02;75.50
59789;BME280;47353;51.614;5.530;2023-07-02T06:04:56;100852.75;;;16.21;75.35
59789;BME280;47353;51.614;5.530;2023-07-02T06:07:23;100855.13;;;16.28;73.34
59789;BME280;47353;51.614;5.530;2023-07-02T06:09:49;100857.50;;;16.48;74.88
59789;BME280;47353;51.614;5.530;2023-07-02T06:12:14;100844.22;;;16.53;73.78
59789;BME280;47353;51.614;5.530;2023-07-02T06:14:40;100852.28;;;16.77;73.07
59789;BME280;47353;51.614;5.530;2023-07-02T06:17:05;100860.28;;;16.92;73.38
59789;BME280;47353;51.614;5.530;2023-07-02T06:19:32;100857.50;;;16.92;70.18
59789;BME280;47353;51.614;5.530;2023-07-02T06:21:58;100862.53;;;17.04;70.81
59789;BME280;47353;51.614;5.530;2023-07-02T06:24:23;100874.63;;;17.21;70.35
59789;BME280;47353;51.614;5.530;2023-07-02T06:26:49;100865.84;;;17.36;71.50
59789;BME280;47353;51.614;5.530;2023-07-02T06:29:14;100866.19;;;17.43;71.01
59789;BME280;47353;51.614;5.530;2023-07-02T06:31:39;100871.38;;;17.50;69.64
59789;BME280;47353;51.614;5.530;2023-07-02T06:34:05;100869.09;;;17.52;68.33
59789;BME280;47353;51.614;5.530;2023-07-02T06:36:31;100881.06;;;17.44;67.33
59789;BME280;47353;51.614;5.530;2023-07-02T06:38:56;100878.69;;;17.37;66.74
59789;BME280;47353;51.614;5.530;2023-07-02T06:41:22;100876.06;;;17.41;68.44
59789;BME280;47353;51.614;5.530;2023-07-02T06:43:48;100881.09;;;17.52;68.62
59789;BME280;47353;51.614;5.530;2023-07-02T06:46:13;100883.56;;;17.54;66.32
59789;BME280;47353;51.614;5.530;2023-07-02T06:48:38;100885.91;;;17.60;65.92
59789;BME280;47353;51.614;5.530;2023-07-02T06:51:04;100885.84;;;17.82;70.73
59789;BME280;47353;51.614;5.530;2023-07-02T06:53:29;100888.16;;;17.89;66.07
59789;BME280;47353;51.614;5.530;2023-07-02T06:55:55;100897.75;;;18.05;68.89
59789;BME280;47353;51.614;5.530;2023-07-02T06:58:20;100891.22;;;18.26;68.19
59789;BME280;47353;51.614;5.530;2023-07-02T07:00:45;100898.84;;;18.43;66.09
59789;BME280;47353;51.614;5.530;2023-07-02T07:03:11;100900.84;;;18.51;64.55
59789;BME280;47353;51.614;5.530;2023-07-02T07:05:36;100902.69;;;18.64;65.39
59789;BME280;47353;51.614;5.530;2023-07-02T07:08:02;100910.78;;;18.66;62.00
59789;BME280;47353;51.614;5.530;2023-07-02T07:10:28;100914.56;;;18.70;62.54
59789;BME280;47353;51.614;5.530;2023-07-02T07:12:53;100911.09;;;18.64;59.80
59789;BME280;47353;51.614;5.530;2023-07-02T07:15:19;100922.66;;;18.80;62.48
59789;BME280;47353;51.614;5.530;2023-07-02T07:17:44;100928.41;;;18.75;58.43
59789;BME280;47353;51.614;5.530;2023-07-02T07:20:10;100920.84;;;18.75;62.18
59789;BME280;47353;51.614;5.530;2023-07-02T07:22:35;100923.78;;;19.13;74.06
59789;BME280;47353;51.614;5.530;2023-07-02T07:25:01;100915.03;;;19.23;65.79
59789;BME280;47353;51.614;5.530;2023-07-02T07:27:26;100920.13;;;19.46;64.72
59789;BME280;47353;51.614;5.530;2023-07-02T07:29:51;100943.41;;;19.47;58.44
59789;BME280;47353;51.614;5.530;2023-07-02T07:32:17;100929.41;;;19.30;57.32
59789;BME280;47353;51.614;5.530;2023-07-02T07:34:42;100932.22;;;19.21;61.73
59789;BME280;47353;51.614;5.530;2023-07-02T07:37:08;100946.56;;;19.20;58.16
59789;BME280;47353;51.614;5.530;2023-07-02T07:39:33;100941.94;;;19.41;62.95
59789;BME280;47353;51.614;5.530;2023-07-02T07:41:59;100947.00;;;19.56;59.20
59789;BME280;47353;51.614;5.530;2023-07-02T07:44:24;100955.72;;;19.71;60.31
59789;BME280;47353;51.614;5.530;2023-07-02T07:46:54;100961.84;;;19.73;55.68
59789;BME280;47353;51.614;5.530;2023-07-02T07:49:21;100960.47;;;19.88;57.42
59789;BME280;47353;51.614;5.530;2023-07-02T07:51:46;100957.69;;;19.71;52.98
59789;BME280;47353;51.614;5.530;2023-07-02T07:54:12;100964.81;;;19.68;55.80
59789;BME280;47353;51.614;5.530;2023-07-02T07:56:37;100964.66;;;19.65;53.53
59789;BME280;47353;51.614;5.530;2023-07-02T07:59:03;100960.38;;;19.59;53.89
59789;BME280;47353;51.614;5.530;2023-07-02T08:01:28;100963.59;;;19.86;56.73
59789;BME280;47353;51.614;5.530;2023-07-02T08:03:53;100962.25;;;20.01;52.17
59789;BME280;47353;51.614;5.530;2023-07-02T08:06:19;100954.59;;;20.19;52.59
59789;BME280;47353;51.614;5.530;2023-07-02T08:08:44;100949.78;;;20.48;54.76
59789;BME280;47353;51.614;5.530;2023-07-02T08:11:10;100958.66;;;20.59;54.91
59789;BME280;47353;51.614;5.530;2023-07-02T08:13:35;100966.66;;;20.77;53.21
59789;BME280;47353;51.614;5.530;2023-07-02T08:16:00;100965.53;;;20.99;51.81
59789;BME280;47353;51.614;5.530;2023-07-02T08:18:26;100960.63;;;21.08;50.14
59789;BME280;47353;51.614;5.530;2023-07-02T08:20:52;100972.94;;;21.03;48.93
59789;BME280;47353;51.614;5.530;2023-07-02T08:23:18;100980.94;;;20.64;47.89
59789;BME280;47353;51.614;5.530;2023-07-02T08:25:43;100980.63;;;20.36;48.75
59789;BME280;47353;51.614;5.530;2023-07-02T08:28:08;100991.97;;;20.02;48.34
59789;BME280;47353;51.614;5.530;2023-07-02T08:30:34;100983.25;;;19.95;49.00
59789;BME280;47353;51.614;5.530;2023-07-02T08:32:59;100978.94;;;19.98;47.82
59789;BME280;47353;51.614;5.530;2023-07-02T08:35:24;100984.69;;;20.10;46.82
59789;BME280;47353;51.614;5.530;2023-07-02T08:37:50;100998.81;;;20.39;48.71
59789;BME280;47353;51.614;5.530;2023-07-02T08:40:19;100990.63;;;20.54;44.75
59789;BME280;47353;51.614;5.530;2023-07-02T08:42:45;101000.94;;;20.42;45.44
59789;BME280;47353;51.614;5.530;2023-07-02T08:45:14;100997.06;;;20.55;46.90
59789;BME280;47353;51.614;5.530;2023-07-02T08:47:39;101007.94;;;20.65;46.38
59789;BME280;47353;51.614;5.530;2023-07-02T08:50:05;101004.38;;;20.47;44.18
59789;BME280;47353;51.614;5.530;2023-07-02T08:52:31;101004.38;;;20.47;45.50
59789;BME280;47353;51.614;5.530;2023-07-02T08:54:56;100998.47;;;20.69;46.82
59789;BME280;47353;51.614;5.530;2023-07-02T08:57:22;100995.09;;;21.58;46.13
59789;BME280;47353;51.614;5.530;2023-07-02T08:59:47;100985.91;;;22.38;45.78
59789;BME280;47353;51.614;5.530;2023-07-02T09:02:14;100990.59;;;22.70;44.64
59789;BME280;47353;51.614;5.530;2023-07-02T09:04:39;100998.03;;;22.63;42.23
59789;BME280;47353;51.614;5.530;2023-07-02T09:07:11;100995.44;;;22.82;41.96
59789;BME280;47353;51.614;5.530;2023-07-02T09:09:48;100995.25;;;23.15;40.83
59789;BME280;47353;51.614;5.530;2023-07-02T09:12:28;100985.63;;;23.71;41.05
59789;BME280;47353;51.614;5.530;2023-07-02T09:14:58;100997.66;;;23.68;38.01
59789;BME280;47353;51.614;5.530;2023-07-02T09:17:37;100996.41;;;23.14;40.26
59789;BME280;47353;51.614;5.530;2023-07-02T09:20:05;100994.50;;;22.54;39.57
59789;BME280;47353;51.614;5.530;2023-07-02T09:22:33;100991.28;;;22.07;41.31
59789;BME280;47353;51.614;5.530;2023-07-02T09:25:00;100989.41;;;22.35;42.15
59789;BME280;47353;51.614;5.530;2023-07-02T09:27:38;100996.59;;;22.45;41.38
59789;BME280;47353;51.614;5.530;2023-07-02T09:30:15;100985.94;;;21.82;41.88
59789;BME280;47353;51.614;5.530;2023-07-02T09:32:42;100989.19;;;21.18;43.49
59789;BME280;47353;51.614;5.530;2023-07-02T09:35:08;100987.03;;;21.36;44.59
59789;BME280;47353;51.614;5.530;2023-07-02T09:37:34;100984.59;;;22.96;41.77
59789;BME280;47353;51.614;5.530;2023-07-02T09:39:59;100985.59;;;23.98;41.41
59789;BME280;47353;51.614;5.530;2023-07-02T09:42:26;100979.16;;;23.70;40.30
59789;BME280;47353;51.614;5.530;2023-07-02T09:44:57;100970.97;;;23.81;39.81
59789;BME280;47353;51.614;5.530;2023-07-02T09:47:24;100982.06;;;23.74;38.37
59789;BME280;47353;51.614;5.530;2023-07-02T09:49:55;100975.63;;;23.89;37.90
59789;BME280;47353;51.614;5.530;2023-07-02T09:52:23;100980.38;;;22.90;38.89
59789;BME280;47353;51.614;5.530;2023-07-02T09:54:48;100981.75;;;22.96;39.51
59789;BME280;47353;51.614;5.530;2023-07-02T09:57:14;100983.91;;;22.63;39.66
59789;BME280;47353;51.614;5.530;2023-07-02T09:59:40;100992.53;;;23.06;41.71
59789;BME280;47353;51.614;5.530;2023-07-02T10:02:06;100993.94;;;22.60;40.71
59789;BME280;47353;51.614;5.530;2023-07-02T10:04:43;100995.91;;;22.24;42.63
59789;BME280;47353;51.614;5.530;2023-07-02T10:07:09;101000.22;;;22.09;42.67
59789;BME280;47353;51.614;5.530;2023-07-02T10:09:45;100999.53;;;22.36;43.02
59789;BME280;47353;51.614;5.530;2023-07-02T10:12:21;101010.38;;;22.82;42.26
59789;BME280;47353;51.614;5.530;2023-07-02T10:14:49;101015.22;;;22.70;42.19
59789;BME280;47353;51.614;5.530;2023-07-02T10:17:34;101016.44;;;22.96;42.23
59789;BME280;47353;51.614;5.530;2023-07-02T10:20:02;101014.59;;;22.88;41.91
59789;BME280;47353;51.614;5.530;2023-07-02T10:22:49;101014.59;;;22.64;43.14
59789;BME280;47353;51.614;5.530;2023-07-02T10:25:25;101018.38;;;22.68;42.63
59789;BME280;47353;51.614;5.530;2023-07-02T10:27:51;101006.38;;;22.59;42.87
59789;BME280;47353;51.614;5.530;2023-07-02T10:30:16;101014.97;;;21.82;47.00
59789;BME280;47353;51.614;5.530;2023-07-02T10:32:42;101025.34;;;21.49;44.73
59789;BME280;47353;51.614;5.530;2023-07-02T10:35:18;101032.44;;;21.34;45.20
59789;BME280;47353;51.614;5.530;2023-07-02T10:37:43;101014.88;;;21.17;46.78
59789;BME280;47353;51.614;5.530;2023-07-02T10:40:10;101019.75;;;21.08;44.94
59789;BME280;47353;51.614;5.530;2023-07-02T10:42:52;101024.13;;;21.79;45.26
59789;BME280;47353;51.614;5.530;2023-07-02T10:45:19;101019.81;;;21.73;44.32
59789;BME280;47353;51.614;5.530;2023-07-02T10:47:45;101040.41;;;21.32;43.59
59789;BME280;47353;51.614;5.530;2023-07-02T10:50:19;101036.53;;;20.67;44.94
59789;BME280;47353;51.614;5.530;2023-07-02T10:52:44;101037.06;;;20.89;46.55
59789;BME280;47353;51.614;5.530;2023-07-02T10:55:10;101035.41;;;21.91;45.91
59789;BME280;47353;51.614;5.530;2023-07-02T10:57:35;101030.88;;;23.19;44.01
59789;BME280;47353;51.614;5.530;2023-07-02T11:00:05;101026.50;;;23.73;40.41
59789;BME280;47353;51.614;5.530;2023-07-02T11:02:38;101024.63;;;23.38;39.96
59789;BME280;47353;51.614;5.530;2023-07-02T11:05:07;101027.22;;;23.43;40.20
59789;BME280;47353;51.614;5.530;2023-07-02T11:07:40;101029.28;;;22.94;41.44
59789;BME280;47353;51.614;5.530;2023-07-02T11:10:07;101028.81;;;22.92;43.09
59789;BME280;47353;51.614;5.530;2023-07-02T11:12:33;101028.44;;;22.93;41.04
59789;BME280;47353;51.614;5.530;2023-07-02T11:15:16;101038.94;;;22.69;43.41
59789;BME280;47353;51.614;5.530;2023-07-02T11:17:44;101031.00;;;23.11;41.32
59789;BME280;47353;51.614;5.530;2023-07-02T11:20:11;101034.00;;;22.78;42.68
59789;BME280;47353;51.614;5.530;2023-07-02T11:22:37;101039.66;;;21.97;43.12
59789;BME280;47353;51.614;5.530;2023-07-02T11:25:10;101039.84;;;21.80;44.65
59789;BME280;47353;51.614;5.530;2023-07-02T11:27:35;101036.88;;;21.77;44.08
59789;BME280;47353;51.614;5.530;2023-07-02T11:30:01;101029.28;;;21.89;45.83
59789;BME280;47353;51.614;5.530;2023-07-02T11:32:26;101036.19;;;22.36;43.64
59789;BME280;47353;51.614;5.530;2023-07-02T11:34:55;101038.50;;;22.67;43.18
59789;BME280;47353;51.614;5.530;2023-07-02T11:37:21;101030.47;;;22.93;43.15
59789;BME280;47353;51.614;5.530;2023-07-02T11:39:48;101045.38;;;23.18;41.17
59789;BME280;47353;51.614;5.530;2023-07-02T11:42:13;101037.59;;;23.27;40.62
59789;BME280;47353;51.614;5.530;2023-07-02T11:44:40;101022.59;;;23.50;40.73
59789;BME280;47353;51.614;5.530;2023-07-02T11:47:05;101025.66;;;24.00;40.86
59789;BME280;47353;51.614;5.530;2023-07-02T11:49:31;101020.78;;;23.85;39.60
59789;BME280;47353;51.614;5.530;2023-07-02T11:51:56;101018.47;;;24.34;39.05
59789;BME280;47353;51.614;5.530;2023-07-02T11:54:21;101022.75;;;24.43;37.36
59789;BME280;47353;51.614;5.530;2023-07-02T11:56:47;101015.06;;;23.97;38.34
59789;BME280;47353;51.614;5.530;2023-07-02T11:59:13;101026.25;;;23.94;38.38
59789;BME280;47353;51.614;5.530;2023-07-02T12:01:38;101028.72;;;23.40;38.59
59789;BME280;47353;51.614;5.530;2023-07-02T12:04:04;101032.19;;;23.10;40.25
59789;BME280;47353;51.614;5.530;2023-07-02T12:06:30;101029.31;;;22.82;40.79
59789;BME280;47353;51.614;5.530;2023-07-02T12:08:56;101024.72;;;22.77;41.09
59789;BME280;47353;51.614;5.530;2023-07-02T12:11:21;101032.66;;;22.27;40.72
59789;BME280;47353;51.614;5.530;2023-07-02T12:13:47;101034.06;;;22.21;42.03
59789;BME280;47353;51.614;5.530;2023-07-02T12:16:12;101034.47;;;22.68;40.35
59789;BME280;47353;51.614;5.530;2023-07-02T12:18:37;101027.44;;;22.74;41.19
59789;BME280;47353;51.614;5.530;2023-07-02T12:21:03;101021.44;;;22.63;41.31
59789;BME280;47353;51.614;5.530;2023-07-02T12:23:28;101020.94;;;22.73;41.85
59789;BME280;47353;51.614;5.530;2023-07-02T12:25:54;101008.47;;;22.50;42.59
59789;BME280;47353;51.614;5.530;2023-07-02T12:28:19;101019.41;;;22.88;41.56
59789;BME280;47353;51.614;5.530;2023-07-02T12:30:44;101024.69;;;22.89;40.55
59789;BME280;47353;51.614;5.530;2023-07-02T12:33:10;101032.09;;;23.06;40.39
59789;BME280;47353;51.614;5.530;2023-07-02T12:35:35;101035.72;;;23.19;38.79
59789;BME280;47353;51.614;5.530;2023-07-02T12:38:01;101039.38;;;23.86;39.03
59789;BME280;47353;51.614;5.530;2023-07-02T12:40:28;101037.00;;;24.31;36.10
59789;BME280;47353;51.614;5.530;2023-07-02T12:42:54;101036.91;;;24.28;34.85
59789;BME280;47353;51.614;5.530;2023-07-02T12:45:19;101028.16;;;24.33;34.24
59789;BME280;47353;51.614;5.530;2023-07-02T12:47:45;101031.34;;;25.13;35.88
59789;BME280;47353;51.614;5.530;2023-07-02T12:50:11;101030.28;;;25.02;33.92